createdAt,value
2023-03-24T00:01:07.309Z,11.62
2023-03-24T00:03:49.601Z,11.61
2023-03-24T00:10:12.819Z,11.61
2023-03-24T00:13:18.591Z,11.58
2023-03-24T00:16:35.770Z,11.54
2023-03-24T00:19:16.269Z,11.50
2023-03-24T00:21:45.400Z,11.54
2023-03-24T00:24:19.453Z,11.58
2023-03-24T00:36:19.512Z,11.80
2023-03-24T00:39:59.581Z,11.89
2023-03-24T00:43:27.862Z,11.95
2023-03-24T00:46:45.901Z,11.94
2023-03-24T00:52:44.877Z,11.88
2023-03-24T00:55:40.375Z,11.87
2023-03-24T01:01:28.392Z,11.93
2023-03-24T01:04:18.285Z,11.92
2023-03-24T01:06:47.869Z,11.89
2023-03-24T01:12:10.378Z,11.94
2023-03-24T01:22:53.786Z,12.01
2023-03-24T01:25:52.556Z,12.07
2023-03-24T01:28:44.192Z,12.09
2023-03-24T01:31:30.664Z,12.17
2023-03-24T01:33:59.156Z,12.24
2023-03-24T01:36:38.814Z,12.27
2023-03-24T01:39:21.420Z,12.28
2023-03-24T01:42:19.666Z,12.28
2023-03-24T01:44:49.858Z,12.28
2023-03-24T01:47:35.307Z,12.28
2023-03-24T01:50:07.981Z,12.22
2023-03-24T01:52:55.757Z,12.22
2023-03-24T01:55:37.729Z,12.22
2023-03-24T01:58:14.743Z,12.20
2023-03-24T02:01:22.619Z,12.20
2023-03-24T02:04:19.521Z,12.18
2023-03-24T02:06:49.345Z,12.12
2023-03-24T02:09:17.752Z,12.13
2023-03-24T02:12:19.321Z,12.09
2023-03-24T02:14:54.983Z,12.08
2023-03-24T02:18:21.693Z,12.06
2023-03-24T02:21:44.250Z,12.05
2023-03-24T02:24:52.089Z,12.06
2023-03-24T02:28:08.127Z,12.04
2023-03-24T02:31:00.533Z,12.04
2023-03-24T02:34:07.914Z,12.05
2023-03-24T02:37:19.501Z,12.08
2023-03-24T02:40:33.025Z,12.08
2023-03-24T02:44:18.974Z,12.08
2023-03-24T02:47:13.810Z,12.08
2023-03-24T02:50:09.994Z,12.05
2023-03-24T02:53:06.362Z,12.03
2023-03-24T02:56:13.192Z,12.02
2023-03-24T02:59:02.705Z,11.97
2023-03-24T03:02:04.855Z,11.97
2023-03-24T03:05:11.167Z,11.97
2023-03-24T03:07:45.422Z,11.99
2023-03-24T03:10:28.964Z,11.98
2023-03-24T03:16:42.233Z,12.08
2023-03-24T03:19:39.428Z,12.09
2023-03-24T03:22:18.588Z,12.08
2023-03-24T03:24:53.961Z,12.07
2023-03-24T03:31:04.264Z,12.06
2023-03-24T03:34:17.866Z,12.05
2023-03-24T03:36:55.353Z,11.98
2023-03-24T03:39:25.834Z,12.01
2023-03-24T03:42:04.057Z,11.99
2023-03-24T03:51:12.420Z,12.01
2023-03-24T03:54:04.369Z,12.01
2023-03-24T03:56:36.208Z,11.99
2023-03-24T03:59:38.653Z,12.00
2023-03-24T04:02:40.645Z,11.99
2023-03-24T04:05:49.832Z,11.98
2023-03-24T04:08:33.353Z,11.99
2023-03-24T04:11:27.367Z,11.95
2023-03-24T04:14:46.356Z,11.99
2023-03-24T04:17:51.336Z,11.96
2023-03-24T04:21:02.922Z,12.00
2023-03-24T04:23:54.047Z,12.04
2023-03-24T04:26:55.404Z,12.01
2023-03-24T04:29:43.201Z,12.00
2023-03-24T04:32:25.003Z,11.99
2023-03-24T04:35:02.020Z,11.96
2023-03-24T04:37:59.693Z,11.91
2023-03-24T04:40:53.501Z,11.89
2023-03-24T04:43:38.583Z,11.85
2023-03-24T04:46:25.544Z,11.82
2023-03-24T04:49:04.232Z,11.78
2023-03-24T04:51:42.652Z,11.66
2023-03-24T05:00:42.615Z,11.59
2023-03-24T05:03:18.656Z,11.54
2023-03-24T05:05:49.958Z,11.54
2023-03-24T05:08:48.294Z,11.54
2023-03-24T05:11:52.368Z,11.52
2023-03-24T05:14:26.282Z,11.53
2023-03-24T05:17:03.690Z,11.52
2023-03-24T05:19:38.805Z,11.56
2023-03-24T05:22:17.663Z,11.55
2023-03-24T05:24:46.039Z,11.57
2023-03-24T05:27:20.856Z,11.58
2023-03-24T05:29:49.666Z,11.60
2023-03-24T05:32:28.800Z,11.58
2023-03-24T05:35:05.780Z,11.57
2023-03-24T05:37:49.236Z,11.55
2023-03-24T05:40:17.911Z,11.58
2023-03-24T05:42:57.335Z,11.57
2023-03-24T05:45:33.305Z,11.54
2023-03-24T05:48:09.650Z,11.56
2023-03-24T05:53:51.669Z,11.64
2023-03-24T05:59:58.310Z,11.71
2023-03-24T06:03:23.782Z,11.74
2023-03-24T06:06:27.789Z,11.78
2023-03-24T06:08:56.203Z,11.74
2023-03-24T06:11:29.372Z,11.73
2023-03-24T06:14:17.599Z,11.69
2023-03-24T06:17:07.251Z,11.67
2023-03-24T06:19:51.673Z,11.67
2023-03-24T06:22:36.729Z,11.66
2023-03-24T06:25:11.878Z,11.66
2023-03-24T06:28:29.605Z,11.70
2023-03-24T06:31:19.000Z,11.73
2023-03-24T06:34:04.651Z,11.84
2023-03-24T06:43:18.647Z,11.89
2023-03-24T06:46:01.902Z,11.89
2023-03-24T06:48:42.375Z,11.84
2023-03-24T06:51:22.491Z,11.86
2023-03-24T06:54:18.521Z,11.87
2023-03-24T06:56:47.528Z,11.86
2023-03-24T06:59:18.128Z,11.93
2023-03-24T07:01:48.332Z,11.90
2023-03-24T07:04:29.752Z,11.93
2023-03-24T07:10:20.499Z,11.95
2023-03-24T07:14:18.621Z,11.98
2023-03-24T07:20:34.677Z,11.94
2023-03-24T07:27:14.698Z,11.83
2023-03-24T07:29:57.636Z,11.79
2023-03-24T07:32:52.443Z,11.64
2023-03-24T07:35:20.740Z,11.54
2023-03-24T07:37:57.950Z,11.62
2023-03-24T07:40:30.764Z,11.57
2023-03-24T07:43:12.731Z,11.60
2023-03-24T07:46:42.844Z,11.57
2023-03-24T07:49:34.385Z,11.58
2023-03-24T07:52:24.580Z,11.58
2023-03-24T07:55:30.236Z,11.53
2023-03-24T07:59:17.104Z,11.50
2023-03-24T08:02:26.105Z,11.44
2023-03-24T08:06:04.628Z,11.39
2023-03-24T08:08:49.860Z,11.36
2023-03-24T08:11:37.899Z,11.33
2023-03-24T08:14:43.551Z,11.35
2023-03-24T08:20:20.149Z,11.31
2023-03-24T08:23:05.792Z,11.33
2023-03-24T08:25:56.696Z,11.40
2023-03-24T08:28:25.176Z,11.33
2023-03-24T08:31:06.481Z,11.36
2023-03-24T08:33:37.733Z,11.24
2023-03-24T08:36:07.028Z,11.29
2023-03-24T08:38:39.299Z,11.30
2023-03-24T08:41:08.986Z,11.15
2023-03-24T08:43:38.090Z,11.27
2023-03-24T08:46:13.799Z,11.28
2023-03-24T08:48:43.801Z,11.30
2023-03-24T08:51:17.156Z,11.34
2023-03-24T08:53:48.995Z,11.30
2023-03-24T08:56:30.858Z,11.38
2023-03-24T08:59:02.441Z,11.36
2023-03-24T09:01:40.246Z,11.37
2023-03-24T09:07:41.053Z,11.27
2023-03-24T09:11:29.719Z,11.17
2023-03-24T09:19:19.746Z,11.13
2023-03-24T09:21:50.442Z,11.15
2023-03-24T09:24:36.606Z,11.09
2023-03-24T09:27:28.055Z,11.16
2023-03-24T09:29:57.417Z,11.08
2023-03-24T09:32:29.025Z,11.05
2023-03-24T09:34:57.663Z,11.11
2023-03-24T09:37:32.112Z,11.08
2023-03-24T09:40:21.345Z,11.12
2023-03-24T09:55:57.427Z,11.35
2023-03-24T10:11:19.147Z,11.43
2023-03-24T10:14:05.301Z,11.65
2023-03-24T10:16:36.583Z,11.77
2023-03-24T10:19:29.907Z,11.78
2023-03-24T10:22:34.610Z,11.84
2023-03-24T10:25:15.853Z,11.84
2023-03-24T10:28:18.678Z,11.84
2023-03-24T10:30:49.500Z,11.96
2023-03-24T10:33:48.992Z,12.03
2023-03-24T10:36:26.420Z,12.24
2023-03-24T10:38:54.850Z,12.32
2023-03-24T10:41:26.473Z,12.41
2023-03-24T10:43:57.246Z,12.43
2023-03-24T10:46:27.825Z,12.52
2023-03-24T10:49:10.360Z,12.53
2023-03-24T10:51:38.347Z,12.55
2023-03-24T10:54:20.185Z,12.47
2023-03-24T10:56:52.953Z,12.35
2023-03-24T10:59:33.251Z,12.33
2023-03-24T11:02:09.908Z,12.46
2023-03-24T11:04:43.611Z,12.54
2023-03-24T11:07:21.722Z,12.64
2023-03-24T11:10:11.296Z,12.66
2023-03-24T11:12:41.442Z,12.57
2023-03-24T11:15:31.256Z,12.53
2023-03-24T11:18:57.063Z,12.50
2023-03-24T11:22:00.418Z,12.51
2023-03-24T11:24:28.650Z,12.47
2023-03-24T11:27:02.432Z,12.55
2023-03-24T11:29:32.438Z,12.54
2023-03-24T11:32:03.805Z,12.65
2023-03-24T11:34:42.489Z,12.75
2023-03-24T11:37:18.520Z,12.79
2023-03-24T11:40:16.805Z,12.81
2023-03-24T11:42:56.283Z,12.79
2023-03-24T11:45:45.098Z,12.87
2023-03-24T11:48:31.743Z,12.83
2023-03-24T11:51:01.236Z,12.88
2023-03-24T11:53:45.880Z,12.90
2023-03-24T11:56:26.840Z,12.96
2023-03-24T11:59:09.692Z,12.93
2023-03-24T12:01:41.284Z,13.10
2023-03-24T12:04:42.845Z,13.52
2023-03-24T12:07:55.032Z,14.07
2023-03-24T12:10:34.319Z,14.05
2023-03-24T12:13:32.717Z,13.81
2023-03-24T12:16:42.433Z,13.73
2023-03-24T12:19:51.907Z,13.85
2023-03-24T12:22:46.895Z,14.12
2023-03-24T12:25:56.810Z,14.50
2023-03-24T12:28:35.869Z,14.55
2023-03-24T12:31:35.121Z,14.35
2023-03-24T12:34:19.255Z,14.23
2023-03-24T12:46:02.916Z,13.91
2023-03-24T12:49:15.725Z,13.78
2023-03-24T12:52:17.292Z,13.73
2023-03-24T12:55:15.328Z,13.61
2023-03-24T12:58:40.091Z,13.60
2023-03-24T13:01:24.316Z,13.51
2023-03-24T13:03:59.973Z,13.47
2023-03-24T13:06:39.330Z,13.54
2023-03-24T13:09:28.436Z,13.57
2023-03-24T13:13:01.237Z,13.59
2023-03-24T13:16:11.160Z,13.69
2023-03-24T13:19:11.395Z,13.77
2023-03-24T13:21:39.635Z,13.67
2023-03-24T13:24:32.737Z,13.63
2023-03-24T13:27:29.099Z,13.67
2023-03-24T13:30:45.393Z,13.64
2023-03-24T13:33:23.999Z,13.73
2023-03-24T13:36:43.492Z,13.82
2023-03-24T13:40:08.711Z,13.86
2023-03-24T13:43:17.118Z,13.84
2023-03-24T13:46:41.757Z,13.89
2023-03-24T13:49:16.691Z,13.89
2023-03-24T13:51:47.390Z,14.00
2023-03-24T13:54:22.979Z,13.98
2023-03-24T13:56:55.554Z,13.97
2023-03-24T13:59:46.739Z,14.01
2023-03-24T14:02:25.088Z,13.98
2023-03-24T14:04:59.461Z,13.89
2023-03-24T14:07:44.781Z,13.88
2023-03-24T14:14:22.600Z,13.83
2023-03-24T14:17:32.650Z,13.82
2023-03-24T14:20:11.563Z,13.66
2023-03-24T14:23:05.438Z,13.46
2023-03-24T14:25:34.758Z,13.35
2023-03-24T14:28:31.073Z,13.34
2023-03-24T14:31:04.299Z,13.14
2023-03-24T14:33:39.639Z,13.09
2023-03-24T14:36:12.524Z,12.91
2023-03-24T14:38:45.031Z,12.86
2023-03-24T14:42:04.631Z,12.74
2023-03-24T14:44:59.827Z,12.55
2023-03-24T14:47:47.968Z,12.31
2023-03-24T14:50:59.281Z,12.21
2023-03-24T14:53:27.314Z,12.20
2023-03-24T14:55:56.905Z,12.14
2023-03-24T14:58:39.719Z,12.14
2023-03-24T15:01:11.415Z,12.10
2023-03-24T15:03:50.405Z,12.18
2023-03-24T15:06:26.009Z,12.14
2023-03-24T15:08:59.236Z,12.19
2023-03-24T15:11:31.384Z,12.31
2023-03-24T15:14:00.950Z,12.29
2023-03-24T15:16:35.313Z,12.23
2023-03-24T15:19:27.140Z,12.20
2023-03-24T15:22:18.287Z,12.14
2023-03-24T15:24:56.041Z,12.08
2023-03-24T15:27:36.347Z,12.02
2023-03-24T15:30:19.778Z,11.99
2023-03-24T15:32:58.104Z,12.01
2023-03-24T15:35:37.318Z,11.99
2023-03-24T15:38:05.199Z,12.00
2023-03-24T15:40:35.683Z,11.96
2023-03-24T15:43:34.599Z,11.93
2023-03-24T15:46:31.548Z,11.93
2023-03-24T15:49:01.089Z,11.87
2023-03-24T15:52:09.901Z,11.89
2023-03-24T15:54:52.044Z,11.91
2023-03-24T15:57:27.151Z,11.91
2023-03-24T16:00:19.033Z,11.89
2023-03-24T16:02:52.752Z,11.88
2023-03-24T16:05:30.895Z,11.84
2023-03-24T16:08:08.465Z,11.79
2023-03-24T16:11:19.068Z,11.79
2023-03-24T16:14:02.383Z,11.78
2023-03-24T16:16:37.380Z,11.73
2023-03-24T16:19:05.087Z,11.74
2023-03-24T16:21:36.399Z,11.68
2023-03-24T16:24:04.313Z,11.66
2023-03-24T16:26:37.743Z,11.69
2023-03-24T16:29:19.873Z,11.67
2023-03-24T16:31:50.651Z,11.67
2023-03-24T16:34:28.564Z,11.62
2023-03-24T16:36:58.154Z,11.64
2023-03-24T16:39:29.402Z,11.63
2023-03-24T16:41:58.065Z,11.62
2023-03-24T16:44:32.960Z,11.56
2023-03-24T16:47:05.092Z,11.52
2023-03-24T16:49:35.596Z,11.48
2023-03-24T16:52:27.574Z,11.49
2023-03-24T17:07:27.208Z,11.41
2023-03-24T17:17:55.477Z,11.27
2023-03-24T17:20:39.589Z,11.28
2023-03-24T17:26:56.732Z,11.31
2023-03-24T17:29:38.520Z,11.28
2023-03-24T17:32:06.989Z,11.23
2023-03-24T17:34:36.270Z,11.08
2023-03-24T17:37:12.086Z,11.01
2023-03-24T17:39:47.636Z,10.93
2023-03-24T17:46:11.126Z,10.83
2023-03-24T17:48:49.263Z,10.78
2023-03-24T17:52:33.622Z,10.70
2023-03-24T17:56:13.701Z,10.60
2023-03-24T17:59:17.193Z,10.51
2023-03-24T18:01:44.854Z,10.46
2023-03-24T18:04:28.479Z,10.35
2023-03-24T18:06:57.125Z,10.27
2023-03-24T18:09:31.121Z,10.28
2023-03-24T18:12:06.544Z,10.20
2023-03-24T18:14:35.082Z,10.18
2023-03-24T18:17:03.579Z,10.21
2023-03-24T18:19:40.367Z,10.26
2023-03-24T18:22:11.669Z,10.29
2023-03-24T18:24:40.819Z,10.22
2023-03-24T18:27:10.822Z,10.10
2023-03-24T18:29:39.675Z,10.17
2023-03-24T18:32:09.438Z,10.12
2023-03-24T18:34:40.440Z,10.11
2023-03-24T18:37:11.561Z,10.05
2023-03-24T18:39:41.005Z,10.07
2023-03-24T18:42:09.449Z,10.02
2023-03-24T18:45:11.008Z,10.08
2023-03-24T18:47:53.830Z,10.08
2023-03-24T18:51:08.962Z,10.03
2023-03-24T18:53:40.534Z,9.94
2023-03-24T18:56:15.335Z,9.95
2023-03-24T18:59:11.331Z,9.88
2023-03-24T19:02:04.300Z,9.88
2023-03-24T19:04:33.885Z,9.82
2023-03-24T19:07:08.832Z,9.77
2023-03-24T19:09:40.082Z,9.72
2023-03-24T19:12:18.243Z,9.72
2023-03-24T19:14:47.945Z,9.70
2023-03-24T19:17:33.754Z,9.72
2023-03-24T19:20:09.552Z,9.66
2023-03-24T19:23:05.802Z,9.64
2023-03-24T19:25:36.020Z,9.62
2023-03-24T19:28:07.514Z,9.63
2023-03-24T19:31:10.899Z,9.61
2023-03-24T19:33:42.787Z,9.57
2023-03-24T19:36:12.419Z,9.51
2023-03-24T19:38:40.673Z,9.51
2023-03-24T19:41:14.323Z,9.55
2023-03-24T19:43:43.346Z,9.49
2023-03-24T19:46:12.718Z,9.53
2023-03-24T19:55:39.719Z,9.44
2023-03-24T20:05:01.757Z,9.33
2023-03-24T20:07:30.228Z,9.26
2023-03-24T20:10:32.755Z,9.23
2023-03-24T20:24:54.816Z,9.02
2023-03-24T20:31:33.113Z,8.87
2023-03-24T20:34:10.168Z,8.81
2023-03-24T20:36:39.387Z,8.83
2023-03-24T20:39:10.727Z,8.79
2023-03-24T20:41:42.672Z,8.72
2023-03-24T20:44:12.024Z,8.66
2023-03-24T20:46:45.823Z,8.65
2023-03-24T20:52:45.635Z,8.56
2023-03-24T20:55:34.337Z,8.50
2023-03-24T20:58:07.044Z,8.49
2023-03-24T21:00:42.451Z,8.50
2023-03-24T21:03:12.479Z,8.41
2023-03-24T21:05:43.845Z,8.43
2023-03-24T21:08:18.000Z,8.41
2023-03-24T21:10:48.924Z,8.43
2023-03-24T21:13:21.779Z,8.38
2023-03-24T21:16:00.143Z,8.40
2023-03-24T21:18:43.087Z,8.35
2023-03-24T21:21:15.765Z,8.31
2023-03-24T21:23:55.557Z,8.35
2023-03-24T21:29:59.856Z,8.16
2023-03-24T21:32:27.777Z,8.24
2023-03-24T21:34:56.975Z,8.20
2023-03-24T21:37:32.350Z,8.18
2023-03-24T21:40:01.124Z,8.01
2023-03-24T21:42:31.183Z,7.90
2023-03-24T21:45:05.599Z,7.98
2023-03-24T21:47:36.866Z,8.04
2023-03-24T21:50:06.603Z,8.01
2023-03-24T21:52:43.580Z,7.83
2023-03-24T21:55:15.001Z,7.96
2023-03-24T21:57:45.240Z,7.87
2023-03-24T22:00:21.080Z,7.79
2023-03-24T22:02:53.092Z,7.71
2023-03-24T22:05:27.245Z,7.66
2023-03-24T22:07:56.469Z,7.71
2023-03-24T22:10:24.597Z,7.66
2023-03-24T22:12:54.237Z,7.57
2023-03-24T22:15:23.110Z,7.46
2023-03-24T22:17:51.512Z,7.43
2023-03-24T22:20:19.609Z,7.13
2023-03-24T22:22:48.322Z,7.28
2023-03-24T22:25:18.693Z,7.22
2023-03-24T22:27:50.737Z,7.12
2023-03-24T22:30:22.017Z,7.01
2023-03-24T22:32:53.050Z,7.01
2023-03-24T22:35:23.953Z,7.08
2023-03-24T22:37:56.704Z,7.06
2023-03-24T22:40:24.945Z,7.02
2023-03-24T22:42:53.210Z,7.07
2023-03-24T22:45:21.979Z,7.06
2023-03-24T22:48:12.312Z,7.11
2023-03-24T22:50:48.529Z,7.11
2023-03-24T22:53:17.522Z,7.05
2023-03-24T22:55:49.018Z,7.15
2023-03-24T22:58:26.443Z,7.16
2023-03-24T23:01:00.841Z,7.14
2023-03-24T23:03:29.071Z,7.08
2023-03-24T23:06:02.273Z,7.11
2023-03-24T23:08:33.006Z,7.14
2023-03-24T23:11:02.160Z,7.09
2023-03-24T23:13:40.326Z,7.11
2023-03-24T23:16:10.278Z,7.15
2023-03-24T23:18:39.653Z,7.13
2023-03-24T23:21:43.313Z,7.20
2023-03-24T23:24:33.674Z,7.21
2023-03-24T23:27:56.360Z,7.25
2023-03-24T23:33:51.521Z,7.23
2023-03-24T23:36:20.816Z,7.20
2023-03-24T23:38:54.142Z,7.20
2023-03-24T23:42:07.839Z,7.23
2023-03-24T23:53:16.735Z,7.18
2023-03-24T23:56:08.655Z,7.12
2023-03-24T23:58:39.185Z,7.15
